Time;durP1;ratioP1;P1;durP2;ratioP2;P2;SDS_P1;SDS_P2;PMS_P1;PMS_P2;Temp;Humidity;BMP_temperature;BMP_pressure;BME280_temperature;BME280_humidity;BME280_pressure;Samples;Min_cycle;Max_cycle;Signal;HPM_P1;HPM_P2
2022/09/23 00:00:02;;;;;;;12.15;10.52;;;8.90;83.20;;;;;;5032399;28;20630;-69
2022/09/23 00:02:28;;;;;;;14.60;10.85;;;8.90;83.40;;;;;;5060762;28;20040;-70
2022/09/23 00:04:54;;;;;;;12.23;10.67;;;9.00;83.00;;;;;;5032313;28;20033;-69
2022/09/23 00:07:20;;;;;;;13.20;11.27;;;9.00;83.40;;;;;;5046173;28;20059;-69
2022/09/23 00:09:46;;;;;;;13.80;10.85;;;9.00;83.30;;;;;;5047140;28;20040;-70
2022/09/23 00:12:11;;;;;;;14.03;11.07;;;9.00;83.20;;;;;;5049576;28;20037;-70
2022/09/23 00:14:38;;;;;;;14.27;11.23;;;9.00;83.10;;;;;;5047941;28;20083;-70
2022/09/23 00:17:04;;;;;;;14.35;11.63;;;9.00;83.00;;;;;;5066274;28;20080;-70
2022/09/23 00:19:30;;;;;;;14.07;12.18;;;9.10;82.90;;;;;;5064992;28;20106;-70
2022/09/23 00:21:56;;;;;;;14.50;12.10;;;9.10;82.80;;;;;;5051872;28;20068;-70
2022/09/23 00:24:22;;;;;;;13.07;11.67;;;9.20;82.80;;;;;;5063873;28;20049;-70
2022/09/23 00:26:48;;;;;;;14.95;11.82;;;9.20;82.80;;;;;;5048496;28;20033;-70
2022/09/23 00:29:17;;;;;;;13.93;11.83;;;9.20;82.50;;;;;;5062691;28;20040;-70
2022/09/23 00:31:43;;;;;;;14.93;12.10;;;9.30;82.50;;;;;;5038653;28;20057;-70
2022/09/23 00:34:10;;;;;;;16.20;12.40;;;9.30;82.20;;;;;;5048987;28;20036;-70
2022/09/23 00:36:36;;;;;;;15.75;12.13;;;9.40;82.10;;;;;;5060182;28;20470;-70
2022/09/23 00:39:03;;;;;;;16.20;11.97;;;9.40;81.90;;;;;;5072390;28;20036;-70
2022/09/23 00:41:28;;;;;;;13.65;11.73;;;9.40;82.10;;;;;;5048634;28;20434;-70
2022/09/23 00:43:57;;;;;;;15.30;12.40;;;9.40;81.90;;;;;;5064009;28;20051;-70
2022/09/23 00:46:34;;;;;;;14.93;13.07;;;9.50;81.80;;;;;;5064080;28;20527;-70
2022/09/23 00:49:21;;;;;;;17.08;12.50;;;9.50;81.50;;;;;;5067348;28;20044;-70
2022/09/23 00:51:54;;;;;;;16.58;13.68;;;9.50;81.50;;;;;;5069282;28;20045;-70
2022/09/23 00:54:22;;;;;;;14.65;13.05;;;9.60;81.40;;;;;;5071462;28;20496;-70
2022/09/23 00:56:48;;;;;;;16.23;12.60;;;9.60;81.10;;;;;;5062400;28;20101;-70
2022/09/23 00:59:14;;;;;;;17.03;13.97;;;9.60;81.00;;;;;;5064608;28;20029;-70
2022/09/23 01:01:41;;;;;;;17.53;12.80;;;9.60;81.00;;;;;;5031307;28;20450;-70
2022/09/23 01:04:07;;;;;;;16.55;12.77;;;9.70;80.90;;;;;;5056456;28;20049;-70
2022/09/23 01:06:33;;;;;;;15.70;12.77;;;9.70;80.90;;;;;;5057717;28;20047;-70
2022/09/23 01:08:58;;;;;;;16.00;13.00;;;9.70;80.80;;;;;;5045845;28;20041;-70
2022/09/23 01:11:44;;;;;;;16.83;13.47;;;9.70;80.80;;;;;;5064511;28;20409;-70
2022/09/23 01:14:30;;;;;;;14.45;12.93;;;9.70;80.90;;;;;;5047630;28;20123;-70
2022/09/23 01:17:18;;;;;;;19.40;13.13;;;9.70;80.80;;;;;;5052193;28;20040;-70
2022/09/23 01:20:26;;;;;;;15.50;13.02;;;9.70;80.80;;;;;;5050769;28;20075;-70
2022/09/23 01:23:29;;;;;;;15.98;13.07;;;9.70;80.80;;;;;;5059113;28;20033;-70
2022/09/23 01:26:13;;;;;;;17.00;13.80;;;9.70;80.80;;;;;;5061917;28;20105;-70
2022/09/23 01:29:01;;;;;;;18.27;14.02;;;9.70;81.00;;;;;;5047213;28;20040;-70
2022/09/23 01:31:50;;;;;;;17.60;14.68;;;9.70;81.10;;;;;;5063888;28;20552;-70
2022/09/23 01:34:28;;;;;;;19.02;13.55;;;9.70;81.00;;;;;;5043349;28;20044;-70
2022/09/23 01:37:01;;;;;;;18.60;14.10;;;9.60;81.00;;;;;;5064379;28;20028;-70
2022/09/23 01:39:37;;;;;;;19.10;14.45;;;9.60;80.80;;;;;;5046650;28;20037;-70
2022/09/23 01:42:38;;;;;;;20.42;14.60;;;9.50;80.80;;;;;;5048346;28;20036;-70
2022/09/23 01:45:26;;;;;;;19.60;15.07;;;9.50;80.80;;;;;;5059770;28;20040;-70
2022/09/23 01:47:57;;;;;;;18.23;14.95;;;9.40;81.00;;;;;;5062392;28;20044;-70
2022/09/23 01:53:44;;;;;;;18.80;15.52;;;9.30;80.90;;;;;;5055367;28;20079;-70
2022/09/23 01:56:22;;;;;;;20.98;16.08;;;9.20;81.30;;;;;;5054299;28;20039;-70
2022/09/23 01:59:01;;;;;;;22.08;16.45;;;9.10;81.80;;;;;;5061547;28;20051;-70
2022/09/23 02:01:38;;;;;;;22.35;16.40;;;9.00;81.60;;;;;;5047377;28;20102;-70
2022/09/23 02:04:16;;;;;;;19.48;16.15;;;9.00;81.60;;;;;;5045246;28;20068;-70
2022/09/23 02:06:47;;;;;;;22.60;16.55;;;8.90;81.50;;;;;;5053260;28;20037;-70
2022/09/23 02:09:23;;;;;;;22.15;16.95;;;8.90;81.40;;;;;;5063298;28;20080;-70
2022/09/23 02:11:53;;;;;;;20.95;16.35;;;8.80;81.50;;;;;;5058940;28;20037;-70
2022/09/23 02:14:27;;;;;;;22.15;15.88;;;8.80;81.60;;;;;;5069905;28;20537;-70
2022/09/23 02:16:57;;;;;;;22.23;16.70;;;8.70;81.60;;;;;;5065050;28;20128;-70
2022/09/23 02:19:33;;;;;;;19.65;16.50;;;8.70;81.70;;;;;;5059361;28;20040;-70
2022/09/23 02:22:12;;;;;;;20.95;16.50;;;8.60;81.80;;;;;;5046868;28;20076;-70
2022/09/23 02:24:38;;;;;;;24.40;17.33;;;8.60;81.90;;;;;;5062330;28;20107;-70
2022/09/23 02:27:43;;;;;;;24.88;19.17;;;8.50;82.30;;;;;;5047550;28;20492;-70
2022/09/23 02:30:14;;;;;;;21.45;18.00;;;8.50;82.50;;;;;;5052438;28;20110;-70
2022/09/23 02:33:12;;;;;;;21.58;18.08;;;8.50;82.40;;;;;;5063173;28;20036;-70
2022/09/23 02:35:58;;;;;;;21.48;17.85;;;8.50;82.70;;;;;;5046172;28;20117;-70
2022/09/23 02:38:38;;;;;;;22.95;18.92;;;8.40;83.10;;;;;;5057523;28;20091;-70
2022/09/23 02:41:16;;;;;;;24.20;19.48;;;8.40;83.00;;;;;;5046476;28;20522;-69
2022/09/23 02:43:50;;;;;;;26.48;19.27;;;8.40;82.90;;;;;;5045701;28;20052;-70
2022/09/23 02:46:17;;;;;;;25.60;18.60;;;8.40;83.00;;;;;;5063079;28;20084;-70
2022/09/23 02:49:09;;;;;;;23.05;19.25;;;8.40;83.20;;;;;;5062132;28;20651;-70
2022/09/23 02:51:37;;;;;;;23.67;18.15;;;8.40;83.20;;;;;;5065029;28;20080;-70
2022/09/23 02:54:06;;;;;;;24.92;19.58;;;8.40;83.30;;;;;;5061815;28;20159;-70
2022/09/23 02:56:33;;;;;;;25.58;18.85;;;8.40;83.20;;;;;;5063224;28;20095;-70
2022/09/23 02:58:59;;;;;;;24.95;19.08;;;8.40;83.00;;;;;;5062616;28;20040;-70
2022/09/23 03:01:34;;;;;;;23.35;17.67;;;8.40;83.20;;;;;;5063506;28;20090;-70
2022/09/23 03:04:37;;;;;;;25.20;18.75;;;8.40;83.20;;;;;;5057752;28;20056;-70
2022/09/23 03:07:21;;;;;;;25.10;18.42;;;8.40;83.20;;;;;;5030596;28;20079;-70
2022/09/23 03:10:19;;;;;;;22.80;18.10;;;8.30;83.10;;;;;;5062773;28;20048;-70
2022/09/23 03:13:28;;;;;;;25.25;18.80;;;8.30;83.10;;;;;;5055751;28;20064;-70
2022/09/23 03:16:07;;;;;;;23.50;18.73;;;8.20;83.10;;;;;;5047079;28;20048;-70
2022/09/23 03:18:42;;;;;;;22.90;17.95;;;8.20;83.30;;;;;;5065503;28;20052;-70
2022/09/23 03:21:32;;;;;;;24.58;18.52;;;8.10;83.20;;;;;;5067053;28;20047;-70
2022/09/23 03:24:01;;;;;;;25.00;18.70;;;8.10;83.40;;;;;;5063069;28;20137;-70
2022/09/23 03:26:31;;;;;;;23.13;19.17;;;8.00;83.50;;;;;;5049590;28;20094;-70
2022/09/23 03:28:59;;;;;;;24.17;18.63;;;8.00;83.80;;;;;;5065856;28;20040;-70
2022/09/23 03:31:25;;;;;;;24.27;18.15;;;8.00;83.80;;;;;;5061908;28;20344;-70
2022/09/23 03:33:55;;;;;;;27.23;18.57;;;7.90;84.00;;;;;;5032886;28;20032;-70
2022/09/23 03:39:41;;;;;;;25.98;18.95;;;7.90;83.90;;;;;;5041704;28;20033;-70
2022/09/23 03:42:23;;;;;;;27.33;18.42;;;7.80;84.00;;;;;;5066165;28;20489;-70
2022/09/23 03:44:53;;;;;;;25.77;18.17;;;7.80;84.30;;;;;;5054852;28;20120;-70
2022/09/23 03:47:19;;;;;;;23.35;18.33;;;7.70;84.50;;;;;;5063059;28;20032;-70
2022/09/23 03:49:47;;;;;;;23.13;18.35;;;7.70;84.50;;;;;;5049058;28;20043;-70
2022/09/23 03:52:14;;;;;;;24.55;17.90;;;7.70;84.40;;;;;;5070689;28;20043;-70
2022/09/23 03:54:40;;;;;;;24.75;18.38;;;7.60;84.50;;;;;;5057565;28;20115;-70
2022/09/23 03:57:06;;;;;;;24.30;17.77;;;7.60;84.60;;;;;;5045658;28;20147;-70
2022/09/23 03:59:32;;;;;;;28.17;18.87;;;7.60;84.80;;;;;;5037845;28;20287;-70
2022/09/23 04:01:58;;;;;;;25.23;17.67;;;7.60;84.80;;;;;;5049933;28;20036;-70
2022/09/23 04:04:28;;;;;;;23.85;17.67;;;7.60;84.60;;;;;;5074511;28;20087;-70
2022/09/23 04:06:55;;;;;;;25.13;17.77;;;7.60;84.80;;;;;;5061461;28;20119;-70
2022/09/23 04:09:21;;;;;;;25.75;18.73;;;7.60;84.60;;;;;;5064547;28;20127;-70
2022/09/23 04:11:48;;;;;;;25.25;18.73;;;7.60;84.80;;;;;;5069467;28;20047;-70
2022/09/23 04:14:14;;;;;;;24.23;18.52;;;7.60;84.70;;;;;;5064138;28;20559;-70
2022/09/23 04:16:40;;;;;;;24.10;17.67;;;7.60;84.50;;;;;;5047711;28;20123;-70
2022/09/23 04:19:06;;;;;;;25.17;18.43;;;7.70;84.40;;;;;;5059815;28;20068;-69
2022/09/23 04:21:31;;;;;;;25.97;18.77;;;7.70;84.40;;;;;;5048265;28;20068;-71
2022/09/23 04:23:57;;;;;;;30.00;18.53;;;7.70;84.50;;;;;;5061875;28;20059;-70
2022/09/23 04:26:23;;;;;;;23.20;18.50;;;7.70;84.40;;;;;;5064440;28;20129;-70
2022/09/23 04:28:49;;;;;;;23.40;18.60;;;7.80;84.60;;;;;;5061873;28;20040;-70
2022/09/23 04:31:14;;;;;;;30.43;20.10;;;7.80;84.80;;;;;;5067767;28;20073;-70
2022/09/23 04:33:40;;;;;;;23.20;17.77;;;7.80;84.60;;;;;;5064969;28;20098;-70
2022/09/23 04:36:06;;;;;;;25.07;18.40;;;7.80;85.00;;;;;;5065285;28;20151;-70
2022/09/23 04:38:32;;;;;;;25.20;19.10;;;7.90;84.60;;;;;;5065444;28;20484;-70
2022/09/23 04:40:57;;;;;;;26.80;19.43;;;7.90;84.70;;;;;;5049893;28;20617;-70
2022/09/23 04:43:23;;;;;;;25.63;19.40;;;7.90;84.60;;;;;;5061987;28;20067;-70
2022/09/23 04:46:04;;;;;;;27.80;19.13;;;8.00;84.60;;;;;;5067678;28;20048;-70
2022/09/23 04:48:30;;;;;;;25.73;19.23;;;8.00;84.60;;;;;;5059633;28;20052;-70
2022/09/23 04:51:09;;;;;;;26.42;19.48;;;8.10;85.00;;;;;;5062728;28;20528;-70
2022/09/23 04:53:37;;;;;;;28.05;19.15;;;8.10;84.80;;;;;;5048807;28;20157;-70
2022/09/23 04:56:06;;;;;;;23.27;17.73;;;8.20;84.80;;;;;;5063586;28;20471;-70
2022/09/23 04:58:33;;;;;;;26.88;19.38;;;8.20;84.90;;;;;;5065167;28;20540;-70
2022/09/23 05:01:10;;;;;;;28.15;18.55;;;8.30;84.80;;;;;;5061338;28;20048;-70
2022/09/23 05:03:37;;;;;;;24.00;18.45;;;8.30;84.60;;;;;;5064017;28;20059;-71
2022/09/23 05:06:02;;;;;;;28.10;18.80;;;8.30;84.80;;;;;;5038935;28;20110;-70
2022/09/23 05:08:28;;;;;;;24.60;18.47;;;8.30;84.50;;;;;;5045006;28;20755;-70
2022/09/23 05:10:59;;;;;;;25.53;19.40;;;8.30;84.60;;;;;;5045618;28;20822;-70
2022/09/23 05:13:25;;;;;;;24.23;19.15;;;8.30;84.60;;;;;;5060771;28;20067;-70
2022/09/23 05:16:11;;;;;;;25.43;19.70;;;8.30;84.60;;;;;;5064164;28;20037;-70
2022/09/23 05:18:42;;;;;;;26.60;19.15;;;8.30;84.50;;;;;;5067756;28;20385;-70
2022/09/23 05:21:13;;;;;;;25.20;18.10;;;8.30;84.40;;;;;;5026254;28;20037;-71
2022/09/23 05:23:40;;;;;;;22.50;18.80;;;8.30;84.50;;;;;;5065438;28;20108;-70
2022/09/23 05:26:10;;;;;;;23.65;18.58;;;8.30;84.50;;;;;;5064763;28;20055;-70
2022/09/23 05:28:38;;;;;;;23.70;18.60;;;8.30;84.50;;;;;;5053302;28;20145;-70
2022/09/23 05:31:08;;;;;;;25.27;17.98;;;8.30;84.30;;;;;;5058889;28;20143;-70
2022/09/23 05:33:35;;;;;;;24.20;17.98;;;8.30;84.30;;;;;;5064727;28;20796;-70
2022/09/23 05:36:02;;;;;;;24.08;18.60;;;8.30;84.40;;;;;;5047055;28;20425;-70
2022/09/23 05:38:30;;;;;;;23.27;18.20;;;8.30;84.40;;;;;;5061702;28;20389;-70
2022/09/23 05:41:04;;;;;;;27.85;19.63;;;8.30;84.40;;;;;;5031286;28;20075;-70
2022/09/23 05:43:30;;;;;;;23.55;17.95;;;8.30;84.50;;;;;;5065017;28;20555;-70
2022/09/23 05:46:09;;;;;;;27.42;19.20;;;8.30;84.50;;;;;;5063925;28;20135;-70
2022/09/23 05:48:36;;;;;;;24.50;18.52;;;8.40;84.50;;;;;;5047244;28;20052;-70
2022/09/23 05:51:02;;;;;;;26.88;19.73;;;8.40;84.70;;;;;;5031486;28;20041;-70
2022/09/23 05:53:29;;;;;;;23.23;18.38;;;8.50;84.40;;;;;;5062954;28;20055;-70
2022/09/23 05:55:56;;;;;;;26.77;19.58;;;8.50;84.40;;;;;;5058504;28;20051;-70
2022/09/23 05:58:23;;;;;;;23.95;18.95;;;8.60;84.60;;;;;;5047420;28;20032;-70
2022/09/23 06:00:49;;;;;;;24.58;18.33;;;8.60;84.50;;;;;;5054488;28;20036;-70
2022/09/23 06:03:17;;;;;;;21.83;17.67;;;8.70;84.50;;;;;;5066105;28;20115;-70
2022/09/23 06:05:43;;;;;;;25.42;18.08;;;8.70;84.50;;;;;;5072124;28;20125;-70
2022/09/23 06:08:09;;;;;;;21.87;17.57;;;8.80;84.50;;;;;;5061704;28;20444;-70
2022/09/23 06:10:40;;;;;;;23.27;18.95;;;8.80;84.60;;;;;;5045797;28;20044;-70
2022/09/23 06:13:07;;;;;;;25.42;17.38;;;8.90;84.50;;;;;;5047785;28;20585;-70
2022/09/23 06:15:33;;;;;;;23.38;18.48;;;8.90;84.40;;;;;;5045056;28;20084;-70
2022/09/23 06:17:59;;;;;;;22.35;17.15;;;9.00;84.10;;;;;;5059465;28;20090;-70
2022/09/23 06:20:25;;;;;;;25.07;18.37;;;9.10;84.20;;;;;;5031826;28;20040;-70
2022/09/23 06:22:52;;;;;;;27.20;19.08;;;9.10;84.10;;;;;;5064097;28;20290;-70
2022/09/23 06:25:18;;;;;;;24.50;18.25;;;9.10;84.20;;;;;;5047196;28;20056;-70
2022/09/23 06:27:53;;;;;;;22.08;18.65;;;9.20;84.20;;;;;;5031317;28;20055;-70
2022/09/23 06:30:19;;;;;;;23.23;17.77;;;9.20;84.20;;;;;;5048342;28;20090;-70
2022/09/23 06:32:52;;;;;;;21.80;17.38;;;9.30;84.10;;;;;;5060238;28;20083;-70
2022/09/23 06:35:19;;;;;;;22.02;17.80;;;9.40;84.00;;;;;;5032309;28;20029;-70
2022/09/23 06:37:45;;;;;;;25.52;17.42;;;9.50;84.10;;;;;;5063816;28;20087;-70
2022/09/23 06:40:13;;;;;;;24.30;18.30;;;9.50;84.00;;;;;;5064560;28;20067;-70
2022/09/23 06:42:42;;;;;;;21.67;17.63;;;9.60;83.90;;;;;;5063816;28;20133;-70
2022/09/23 06:45:11;;;;;;;23.05;17.67;;;9.70;84.00;;;;;;5061870;28;20521;-70
2022/09/23 06:47:41;;;;;;;23.38;19.20;;;9.70;83.90;;;;;;5063059;28;20585;-71
2022/09/23 06:50:08;;;;;;;21.48;17.92;;;9.80;83.80;;;;;;5062064;28;20123;-70
2022/09/23 06:52:34;;;;;;;24.17;17.88;;;9.90;83.80;;;;;;5046395;28;20102;-70
2022/09/23 06:55:00;;;;;;;24.40;17.73;;;10.00;83.80;;;;;;5050161;28;20814;-70
2022/09/23 06:57:30;;;;;;;20.20;17.15;;;10.10;83.70;;;;;;5071969;28;20385;-71
2022/09/23 06:59:57;;;;;;;21.83;16.80;;;10.30;83.50;;;;;;5067038;28;20044;-70
2022/09/23 07:02:24;;;;;;;22.17;17.27;;;10.40;83.40;;;;;;5054769;28;20071;-70
2022/09/23 07:04:50;;;;;;;19.63;16.33;;;10.50;83.30;;;;;;5050729;28;20033;-70
2022/09/23 07:07:17;;;;;;;22.17;16.30;;;10.60;83.30;;;;;;5052068;28;20039;-70
2022/09/23 07:09:46;;;;;;;20.95;16.88;;;10.70;83.20;;;;;;5069193;28;20040;-70
2022/09/23 07:12:12;;;;;;;21.35;17.08;;;10.80;82.90;;;;;;5069640;28;20045;-70
2022/09/23 07:14:38;;;;;;;20.02;15.65;;;10.90;82.60;;;;;;5053224;28;20127;-70
2022/09/23 07:17:04;;;;;;;23.35;16.17;;;10.90;82.40;;;;;;5050204;28;20040;-70
2022/09/23 07:19:30;;;;;;;20.03;15.13;;;11.00;82.10;;;;;;5067664;28;20055;-70
2022/09/23 07:21:55;;;;;;;18.00;14.87;;;11.00;81.90;;;;;;5069600;28;20040;-71
2022/09/23 07:24:21;;;;;;;19.73;16.03;;;11.00;81.60;;;;;;5049898;28;20092;-70
2022/09/23 07:26:48;;;;;;;19.97;15.60;;;11.10;81.50;;;;;;5032970;28;20037;-70
2022/09/23 07:29:14;;;;;;;16.75;14.90;;;11.10;81.50;;;;;;5020772;28;20056;-70
2022/09/23 07:31:40;;;;;;;20.13;15.73;;;11.10;81.60;;;;;;5068617;28;20044;-70
2022/09/23 07:34:10;;;;;;;19.70;15.05;;;11.20;81.60;;;;;;5049650;28;20283;-71
2022/09/23 07:36:36;;;;;;;21.07;15.03;;;11.30;81.40;;;;;;5041059;28;20039;-70
2022/09/23 07:39:02;;;;;;;20.63;15.63;;;11.40;81.50;;;;;;5066573;28;20286;-70
2022/09/23 07:41:30;;;;;;;19.17;14.77;;;11.40;81.40;;;;;;5066977;28;20801;-70
2022/09/23 07:44:00;;;;;;;17.57;14.97;;;11.50;81.20;;;;;;5053897;28;20298;-71
2022/09/23 07:46:27;;;;;;;19.53;15.00;;;11.60;81.00;;;;;;5056978;28;20290;-70
2022/09/23 07:48:54;;;;;;;17.67;14.53;;;11.70;80.70;;;;;;5054877;28;20844;-70
2022/09/23 07:51:26;;;;;;;18.00;14.63;;;11.70;80.40;;;;;;5066796;28;20302;-70
2022/09/23 07:53:53;;;;;;;17.17;14.43;;;11.80;80.50;;;;;;5085163;28;20437;-70
2022/09/23 07:56:23;;;;;;;18.13;13.90;;;11.90;80.30;;;;;;5065100;28;20271;-70
2022/09/23 07:58:58;;;;;;;15.83;14.00;;;12.00;80.00;;;;;;5053707;28;20832;-71
2022/09/23 08:01:28;;;;;;;20.33;13.97;;;12.10;79.30;;;;;;5063561;28;20690;-71
2022/09/23 08:03:59;;;;;;;18.03;14.23;;;12.20;79.60;;;;;;5045323;28;20040;-71
2022/09/23 08:06:25;;;;;;;16.70;14.43;;;12.30;79.40;;;;;;5045091;28;20689;-70
2022/09/23 08:08:51;;;;;;;16.80;14.70;;;12.50;79.30;;;;;;5062677;28;20294;-70
2022/09/23 08:11:17;;;;;;;16.30;13.53;;;12.60;78.50;;;;;;5063858;28;20044;-71
2022/09/23 08:13:43;;;;;;;17.40;13.73;;;12.80;78.50;;;;;;5042944;28;20279;-71
2022/09/23 08:16:09;;;;;;;16.03;13.10;;;12.90;78.40;;;;;;5063614;28;20124;-71
2022/09/23 08:18:35;;;;;;;16.67;13.07;;;13.00;78.00;;;;;;5058957;28;20049;-71
2022/09/23 08:21:02;;;;;;;16.30;13.77;;;13.10;77.40;;;;;;5047188;28;20666;-70
2022/09/23 08:23:32;;;;;;;16.87;13.33;;;13.20;77.30;;;;;;5056754;28;20046;-71
2022/09/23 08:26:00;;;;;;;15.27;13.23;;;13.30;77.10;;;;;;5068139;28;20305;-70
2022/09/23 08:28:26;;;;;;;16.17;13.27;;;13.40;76.90;;;;;;5062979;28;20290;-70
2022/09/23 08:30:53;;;;;;;15.63;12.67;;;13.50;76.30;;;;;;5041323;28;20806;-70
2022/09/23 08:33:19;;;;;;;15.33;13.03;;;13.50;76.40;;;;;;5044255;28;20341;-71
2022/09/23 08:35:45;;;;;;;16.27;12.87;;;13.60;76.50;;;;;;5046945;28;20823;-71
2022/09/23 08:38:10;;;;;;;14.33;12.57;;;13.70;76.60;;;;;;5047350;28;20425;-71
2022/09/23 08:40:42;;;;;;;14.93;12.50;;;13.70;76.30;;;;;;5050863;28;20342;-71
2022/09/23 08:43:20;;;;;;;15.57;12.60;;;13.80;76.30;;;;;;5062722;28;20404;-70
2022/09/23 08:45:46;;;;;;;15.87;12.63;;;13.90;76.30;;;;;;5036735;28;20317;-70
2022/09/23 08:48:19;;;;;;;14.53;12.70;;;13.90;76.20;;;;;;5042928;28;20283;-70
2022/09/23 08:50:53;;;;;;;15.77;12.23;;;14.00;76.10;;;;;;5042680;28;20401;-71
2022/09/23 08:53:32;;;;;;;17.33;12.87;;;14.00;76.40;;;;;;5062479;28;20817;-70
2022/09/23 08:56:01;;;;;;;16.67;12.77;;;14.20;76.80;;;;;;5083057;28;20332;-70
2022/09/23 08:58:50;;;;;;;14.33;12.43;;;14.20;76.50;;;;;;5043126;28;20278;-71
2022/09/23 09:01:33;;;;;;;14.73;12.53;;;14.20;76.30;;;;;;5065390;28;20306;-71
2022/09/23 09:04:14;;;;;;;16.57;12.57;;;14.30;76.10;;;;;;5061422;28;20315;-71
2022/09/23 09:07:06;;;;;;;15.90;12.50;;;14.30;76.20;;;;;;5068649;28;20662;-71
2022/09/23 09:09:44;;;;;;;20.07;12.93;;;14.30;76.30;;;;;;5053015;28;20786;-71
2022/09/23 09:12:23;;;;;;;16.23;11.97;;;14.40;76.30;;;;;;5065667;28;20394;-71
2022/09/23 09:15:00;;;;;;;13.23;11.80;;;14.40;76.40;;;;;;5069362;28;20283;-70
2022/09/23 09:17:32;;;;;;;14.23;11.07;;;14.50;76.30;;;;;;5065331;28;20283;-71
2022/09/23 09:20:17;;;;;;;14.65;12.23;;;14.60;76.30;;;;;;5043896;28;20606;-71
2022/09/23 09:22:56;;;;;;;14.10;11.03;;;14.70;75.90;;;;;;5048503;28;20050;-71
2022/09/23 09:25:40;;;;;;;13.93;11.63;;;14.80;75.80;;;;;;5067558;28;20300;-71
2022/09/23 09:28:34;;;;;;;15.67;10.50;;;14.90;75.60;;;;;;5060865;28;20326;-70
2022/09/23 09:31:20;;;;;;;15.90;11.80;;;15.00;75.10;;;;;;5048588;28;20310;-71
2022/09/23 09:34:15;;;;;;;13.10;10.70;;;15.10;75.10;;;;;;5067113;28;20286;-71
2022/09/23 09:37:02;;;;;;;13.82;11.55;;;15.30;74.80;;;;;;5064969;28;20049;-71
2022/09/23 09:39:28;;;;;;;12.63;10.87;;;15.40;74.70;;;;;;5064286;28;20098;-71
2022/09/23 09:41:59;;;;;;;13.60;10.87;;;15.40;74.60;;;;;;5010093;28;20313;-71
2022/09/23 09:44:48;;;;;;;13.43;11.00;;;15.60;74.50;;;;;;5038491;28;20410;-71
2022/09/23 09:47:14;;;;;;;15.73;12.03;;;15.70;74.20;;;;;;5061837;28;20801;-72
2022/09/23 09:49:48;;;;;;;13.80;11.10;;;15.80;74.10;;;;;;5064270;28;20380;-72
2022/09/23 09:52:23;;;;;;;13.63;10.20;;;15.80;73.90;;;;;;5056318;28;20036;-71
2022/09/23 09:54:49;;;;;;;16.40;11.13;;;15.90;73.70;;;;;;5064184;28;20497;-71
2022/09/23 09:57:29;;;;;;;12.03;10.40;;;15.90;73.50;;;;;;5068844;28;20508;-71
2022/09/23 09:59:55;;;;;;;16.60;10.27;;;15.90;73.20;;;;;;5064060;28;20728;-71
2022/09/23 10:02:34;;;;;;;15.63;11.10;;;15.90;73.20;;;;;;5064144;28;20279;-71
2022/09/23 10:05:04;;;;;;;11.80;10.07;;;15.80;73.20;;;;;;5049974;28;20618;-71
2022/09/23 10:07:31;;;;;;;13.93;10.30;;;15.70;73.40;;;;;;5049301;28;20275;-71
2022/09/23 10:10:11;;;;;;;12.70;10.90;;;15.70;73.90;;;;;;5064675;28;20358;-71
2022/09/23 10:12:48;;;;;;;15.87;10.87;;;15.60;73.90;;;;;;5041506;28;20308;-71
2022/09/23 10:15:33;;;;;;;14.23;11.03;;;15.60;73.80;;;;;;5064028;28;20282;-71
2022/09/23 10:18:00;;;;;;;13.43;10.77;;;15.50;74.10;;;;;;5051830;28;20363;-71
2022/09/23 10:20:36;;;;;;;12.47;10.57;;;15.50;74.20;;;;;;5064690;28;20040;-71
2022/09/23 10:23:14;;;;;;;16.77;11.50;;;15.50;74.30;;;;;;5047700;28;20278;-71
2022/09/23 10:25:40;;;;;;;14.23;11.77;;;15.50;74.50;;;;;;5061302;28;20341;-71
2022/09/23 10:28:37;;;;;;;14.60;10.50;;;15.50;74.70;;;;;;5065488;28;20730;-70
2022/09/23 10:31:09;;;;;;;16.27;11.83;;;15.70;74.70;;;;;;5066972;28;20349;-71
2022/09/23 10:33:41;;;;;;;15.57;11.93;;;15.80;74.70;;;;;;5051220;28;20290;-71
2022/09/23 10:36:10;;;;;;;16.57;12.67;;;15.80;74.40;;;;;;5054344;28;20282;-71
2022/09/23 10:38:36;;;;;;;14.77;12.00;;;15.90;74.20;;;;;;5067947;28;20404;-71
2022/09/23 10:47:13;;;;;;;15.30;11.77;;;15.90;75.40;;;;;;5060817;28;20299;-71
2022/09/23 10:49:54;;;;;;;16.33;11.73;;;15.80;75.90;;;;;;5067979;28;20055;-71
2022/09/23 10:52:43;;;;;;;15.97;12.43;;;15.80;76.20;;;;;;5072500;28;20079;-72
2022/09/23 10:55:42;;;;;;;16.57;13.07;;;15.70;77.30;;;;;;5067870;28;20271;-71
2022/09/23 10:58:24;;;;;;;18.43;13.20;;;15.70;77.80;;;;;;5060147;28;20275;-71
2022/09/23 11:01:12;;;;;;;15.07;12.17;;;15.70;77.80;;;;;;5063899;28;20569;-72
2022/09/23 11:03:51;;;;;;;16.47;13.60;;;15.70;78.40;;;;;;5047444;28;20650;-71
2022/09/23 11:06:40;;;;;;;17.90;12.97;;;15.70;78.80;;;;;;5068175;28;20295;-72
2022/09/23 11:09:32;;;;;;;18.17;13.53;;;15.70;79.40;;;;;;5066927;28;20695;-71
2022/09/23 11:12:20;;;;;;;17.83;14.43;;;15.70;79.90;;;;;;5060626;28;20727;-72
2022/09/23 11:15:15;;;;;;;18.63;13.40;;;15.70;80.00;;;;;;5065469;28;20310;-71
2022/09/23 11:18:02;;;;;;;15.97;13.67;;;15.80;80.40;;;;;;5040039;28;20287;-71
2022/09/23 11:20:54;;;;;;;18.93;13.80;;;15.80;80.30;;;;;;5068445;28;20314;-71
2022/09/23 11:23:41;;;;;;;16.97;14.30;;;15.90;80.60;;;;;;5047656;28;20349;-71
2022/09/23 11:26:30;;;;;;;16.40;14.23;;;15.90;81.20;;;;;;5068071;28;20325;-71
2022/09/23 11:29:07;;;;;;;17.87;14.43;;;16.00;80.90;;;;;;5048836;28;20355;-71
2022/09/23 11:31:39;;;;;;;20.63;14.70;;;16.00;81.20;;;;;;5052372;28;20306;-72
2022/09/23 11:34:21;;;;;;;19.27;14.77;;;16.00;81.30;;;;;;5067198;28;20810;-71
2022/09/23 11:36:52;;;;;;;17.80;15.53;;;16.10;81.10;;;;;;5067912;28;20666;-71
2022/09/23 11:39:31;;;;;;;18.17;15.13;;;16.10;81.00;;;;;;5056448;28;20758;-71
2022/09/23 11:42:00;;;;;;;19.67;14.97;;;16.20;80.80;;;;;;5053163;28;20306;-71
2022/09/23 11:44:37;;;;;;;18.67;14.63;;;16.20;80.70;;;;;;5061812;28;20275;-71
2022/09/23 11:47:08;;;;;;;18.70;14.93;;;16.20;80.30;;;;;;5042836;28;20279;-71
2022/09/23 11:49:38;;;;;;;20.43;15.17;;;16.20;80.20;;;;;;5064745;28;20346;-71
2022/09/23 11:52:18;;;;;;;17.93;15.17;;;16.20;80.10;;;;;;5052940;28;20826;-71
2022/09/23 11:55:02;;;;;;;18.73;14.57;;;16.20;80.20;;;;;;5064833;28;20286;-71
2022/09/23 11:57:40;;;;;;;16.98;14.93;;;16.20;80.00;;;;;;5061734;28;20290;-71
2022/09/23 12:00:14;;;;;;;23.97;16.20;;;16.10;80.00;;;;;;5062881;28;20029;-71
2022/09/23 12:02:48;;;;;;;17.87;15.00;;;16.20;80.40;;;;;;5050651;28;20396;-71
2022/09/23 12:05:21;;;;;;;17.15;14.20;;;16.20;80.00;;;;;;5053651;28;20626;-70
2022/09/23 12:08:16;;;;;;;18.67;14.87;;;16.20;79.70;;;;;;5048938;28;20051;-71
2022/09/23 12:11:05;;;;;;;18.75;14.52;;;16.20;79.60;;;;;;5050090;28;20307;-70
2022/09/23 12:14:08;;;;;;;17.33;14.27;;;16.20;79.70;;;;;;5065258;28;20079;-70
2022/09/23 12:16:47;;;;;;;19.17;14.37;;;16.10;79.90;;;;;;5052507;28;20715;-70
2022/09/23 12:19:53;;;;;;;17.30;14.27;;;16.00;79.70;;;;;;5068302;28;20271;-71
2022/09/23 12:22:59;;;;;;;21.20;15.02;;;16.00;79.90;;;;;;5067168;28;20275;-71
2022/09/23 12:25:34;;;;;;;;;;;15.90;80.30;;;;;;5028194;28;1088695;-73
2022/09/23 12:28:13;;;;;;;19.90;14.47;;;15.90;80.70;;;;;;5062515;28;20774;-71
2022/09/23 12:30:40;;;;;;;18.73;15.20;;;15.80;80.80;;;;;;5077622;28;20389;-71
2022/09/23 12:33:10;;;;;;;18.17;15.77;;;15.90;80.80;;;;;;5049558;28;20297;-71
2022/09/23 12:35:40;;;;;;;21.77;15.80;;;15.90;81.30;;;;;;5066458;28;20286;-71
2022/09/23 12:38:17;;;;;;;20.07;16.83;;;15.90;81.40;;;;;;5068429;28;20282;-71
2022/09/23 12:40:43;;;;;;;22.67;16.63;;;15.90;81.50;;;;;;5050186;28;20325;-71
2022/09/23 12:43:29;;;;;;;21.87;16.03;;;15.80;81.80;;;;;;5049318;28;20469;-71
2022/09/23 12:46:16;;;;;;;18.70;16.07;;;15.70;81.80;;;;;;5048254;28;20279;-71
2022/09/23 12:49:03;;;;;;;19.30;15.73;;;15.70;81.90;;;;;;5053021;28;20291;-71
2022/09/23 12:51:34;;;;;;;21.03;15.80;;;15.70;82.40;;;;;;5060360;28;20864;-71
2022/09/23 12:54:03;;;;;;;19.33;15.57;;;15.80;82.70;;;;;;5066450;28;20366;-70
2022/09/23 12:56:32;;;;;;;18.23;15.13;;;15.80;82.30;;;;;;5062756;28;20275;-70
2022/09/23 12:58:58;;;;;;;20.73;15.93;;;15.70;82.30;;;;;;5064880;28;20285;-70
2022/09/23 13:01:25;;;;;;;21.53;16.43;;;15.70;82.80;;;;;;5064043;28;20287;-70
2022/09/23 13:06:55;;;;;;;19.83;17.17;;;15.70;83.00;;;;;;5064968;28;20358;-70
2022/09/23 13:09:36;;;;;;;19.87;16.43;;;15.70;83.20;;;;;;5065332;28;20349;-70
2022/09/23 13:12:07;;;;;;;20.47;16.47;;;15.70;83.40;;;;;;5067058;28;20301;-70
2022/09/23 13:14:34;;;;;;;21.47;17.17;;;15.80;83.20;;;;;;5065176;28;20358;-71
2022/09/23 13:17:00;;;;;;;18.63;15.20;;;15.80;83.40;;;;;;5048891;28;20287;-70
2022/09/23 13:19:25;;;;;;;21.90;16.97;;;15.90;83.40;;;;;;5046284;28;20275;-70